Itapecerica, Brazil
Current Conditions -  °F | °C
As of 10:00 PM on Wednesday 22 Oct 2014 (Local Time) from SBBH Reporting Station
Scattered Clouds Scattered Clouds  
Wind Chill: 68°   Ceiling: Unl
Heat Index: 68°   Visibility: 6mi
Dew Point: 57°   Wind: 13mph
Humidity: 68%   Direction: 80°E
Pressure: 30.18"   Gusts: NA
Location:  20.47°S, 45.13°W
Report Text: SBBH 230000Z 08011KT 9999 FEW025 SCT100 20/14 Q1022
Loading
Personal Weather Stations






























Interactive Weather Map
Tropical Storm Tracking
New forecast layout! Learn more

10-Day Weather Forecast

Advertisements
Track Severe Weather on mobile